Time;durP1;ratioP1;P1;durP2;ratioP2;P2;SDS_P1;SDS_P2;PMS_P1;PMS_P2;Temp;Humidity;BMP_temperature;BMP_pressure;BME280_temperature;BME280_humidity;BME280_pressure;Samples;Min_cycle;Max_cycle;Signal;HPM_P1;HPM_P2
2023/06/07 00:01:12;;;;;;;10.13;6.05;;;;;;;;;;5034162;28;20054;-61
2023/06/07 00:03:41;;;;;;;8.80;6.80;;;;;;;;;;5022373;28;20058;-61
2023/06/07 00:06:09;;;;;;;7.38;6.57;;;;;;;;;;5014449;28;20054;-61
2023/06/07 00:08:36;;;;;;;9.18;6.70;;;;;;;;;;5014372;28;20058;-61
2023/06/07 00:11:03;;;;;;;8.07;6.55;;;;;;;;;;5014052;28;20054;-61
2023/06/07 00:13:30;;;;;;;8.40;6.45;;;;;;;;;;5014273;28;20041;-60
2023/06/07 00:15:57;;;;;;;9.85;7.47;;;;;;;;;;5014088;28;20061;-61
2023/06/07 00:18:24;;;;;;;9.20;7.63;;;;;;;;;;5013964;28;20050;-61
2023/06/07 00:20:53;;;;;;;8.82;7.43;;;;;;;;;;5014120;28;20132;-63
2023/06/07 00:23:20;;;;;;;10.02;7.95;;;;;;;;;;5013902;28;20054;-61
2023/06/07 00:25:48;;;;;;;8.20;7.15;;;;;;;;;;5014117;28;20104;-61
2023/06/07 00:28:14;;;;;;;8.75;7.85;;;;;;;;;;5014108;28;20064;-61
2023/06/07 00:30:41;;;;;;;10.48;9.32;;;;;;;;;;5013733;28;20505;-60
2023/06/07 00:33:08;;;;;;;10.20;9.15;;;;;;;;;;5013953;28;20545;-60
2023/06/07 00:35:35;;;;;;;10.35;8.40;;;;;;;;;;5013891;28;20049;-61
2023/06/07 00:38:05;;;;;;;9.25;8.27;;;;;;;;;;5013189;28;20050;-61
2023/06/07 00:40:32;;;;;;;10.85;8.85;;;;;;;;;;5013527;28;20046;-62
2023/06/07 00:42:59;;;;;;;10.80;9.00;;;;;;;;;;5014026;28;20100;-62
2023/06/07 00:45:26;;;;;;;9.15;8.25;;;;;;;;;;5013615;28;20056;-62
2023/06/07 00:47:53;;;;;;;9.52;8.27;;;;;;;;;;5013800;28;20046;-60
2023/06/07 00:50:19;;;;;;;8.20;7.40;;;;;;;;;;5013304;28;20057;-61
2023/06/07 00:52:46;;;;;;;10.70;7.63;;;;;;;;;;5013437;28;20111;-61
2023/06/07 00:55:14;;;;;;;10.43;7.00;;;;;;;;;;5013338;28;20100;-62
2023/06/07 00:57:42;;;;;;;8.95;6.85;;;;;;;;;;5013416;28;20077;-62
2023/06/07 01:00:13;;;;;;;8.98;7.57;;;;;;;;;;5013260;28;20085;-63
2023/06/07 01:02:40;;;;;;;11.35;8.23;;;;;;;;;;5016692;28;20139;-61
2023/06/07 01:05:08;;;;;;;8.48;7.22;;;;;;;;;;5033051;28;20398;-61
2023/06/07 01:07:35;;;;;;;9.07;7.63;;;;;;;;;;5032719;28;20053;-61
2023/06/07 01:10:02;;;;;;;8.20;7.28;;;;;;;;;;5032660;28;20052;-62
2023/06/07 01:12:34;;;;;;;9.63;7.63;;;;;;;;;;5032635;28;20053;-61
2023/06/07 01:15:01;;;;;;;8.02;7.18;;;;;;;;;;5032951;28;20045;-61
2023/06/07 01:17:30;;;;;;;8.85;7.13;;;;;;;;;;5032666;28;20483;-61
2023/06/07 01:19:59;;;;;;;7.85;7.05;;;;;;;;;;5032523;28;20144;-61
2023/06/07 01:22:28;;;;;;;10.43;7.78;;;;;;;;;;5032533;28;20440;-62
2023/06/07 01:24:56;;;;;;;9.20;7.97;;;;;;;;;;5032817;28;20107;-62
2023/06/07 01:27:27;;;;;;;8.80;7.10;;;;;;;;;;5032580;28;20140;-62
2023/06/07 01:29:57;;;;;;;;;;;;;;;;;;5033110;28;20127;-61
2023/06/07 01:32:25;;;;;;;7.55;6.68;;;;;;;;;;5032431;28;19921;-60
2023/06/07 01:34:53;;;;;;;8.77;7.55;;;;;;;;;;5032693;28;20056;-61
2023/06/07 01:37:21;;;;;;;9.18;7.25;;;;;;;;;;5032317;28;20056;-60
2023/06/07 01:39:49;;;;;;;7.53;6.70;;;;;;;;;;5032117;28;20049;-60
2023/06/07 01:42:18;;;;;;;8.38;6.90;;;;;;;;;;5032086;28;20410;-61
2023/06/07 01:44:47;;;;;;;8.40;6.80;;;;;;;;;;5032195;28;20103;-61
2023/06/07 01:47:14;;;;;;;9.00;6.70;;;;;;;;;;5032467;28;20052;-61
2023/06/07 01:49:42;;;;;;;7.57;6.38;;;;;;;;;;5031374;28;20042;-61
2023/06/07 01:52:09;;;;;;;8.05;6.68;;;;;;;;;;5032144;28;20050;-60
2023/06/07 01:54:36;;;;;;;8.02;6.80;;;;;;;;;;5032178;28;20099;-61
2023/06/07 01:57:16;;;;;;;7.82;6.75;;;;;;;;;;5032112;28;20057;-61
2023/06/07 01:59:51;;;;;;;8.75;7.13;;;;;;;;;;5031992;28;20340;-61
2023/06/07 02:02:25;;;;;;;8.57;6.72;;;;;;;;;;5031191;28;20057;-61
2023/06/07 02:04:57;;;;;;;8.93;6.97;;;;;;;;;;5012394;28;20046;-61
2023/06/07 02:07:27;;;;;;;9.85;6.93;;;;;;;;;;5011956;28;20503;-61
2023/06/07 02:09:55;;;;;;;8.75;7.20;;;;;;;;;;5011994;28;20050;-64
2023/06/07 02:12:23;;;;;;;9.90;7.28;;;;;;;;;;5012105;28;20081;-60
2023/06/07 02:14:52;;;;;;;8.02;7.22;;;;;;;;;;5011994;28;20490;-60
2023/06/07 02:17:19;;;;;;;8.48;6.97;;;;;;;;;;5012304;28;20446;-62
2023/06/07 02:19:46;;;;;;;8.07;7.05;;;;;;;;;;5012171;28;20058;-60
2023/06/07 02:22:14;;;;;;;8.88;7.22;;;;;;;;;;5011961;28;20050;-64
2023/06/07 02:24:41;;;;;;;8.88;7.15;;;;;;;;;;5012809;28;20133;-62
2023/06/07 02:27:08;;;;;;;8.88;7.10;;;;;;;;;;5012124;28;20050;-61
2023/06/07 02:29:36;;;;;;;9.13;7.85;;;;;;;;;;5011837;28;20158;-61
2023/06/07 02:32:05;;;;;;;8.95;7.40;;;;;;;;;;5012104;28;20108;-62
2023/06/07 02:34:32;;;;;;;8.88;7.22;;;;;;;;;;5012221;28;20116;-60
2023/06/07 02:37:00;;;;;;;8.52;7.38;;;;;;;;;;5011579;28;20057;-59
2023/06/07 02:39:27;;;;;;;8.13;7.15;;;;;;;;;;5011991;28;20535;-62
2023/06/07 02:41:54;;;;;;;8.95;8.00;;;;;;;;;;5012091;28;20057;-62
2023/06/07 02:44:21;;;;;;;8.73;7.05;;;;;;;;;;5011990;28;20056;-61
2023/06/07 02:46:47;;;;;;;8.45;7.47;;;;;;;;;;5012010;28;20189;-60
2023/06/07 02:49:16;;;;;;;8.95;7.53;;;;;;;;;;5011537;28;20110;-62
2023/06/07 02:51:43;;;;;;;8.50;7.60;;;;;;;;;;5011561;28;20411;-61
2023/06/07 02:54:10;;;;;;;8.88;7.30;;;;;;;;;;5011813;28;20069;-61
2023/06/07 02:56:37;;;;;;;9.02;7.07;;;;;;;;;;5011869;28;20054;-59
2023/06/07 02:59:04;;;;;;;9.52;7.22;;;;;;;;;;5011410;28;20431;-61
2023/06/07 03:01:33;;;;;;;9.50;7.05;;;;;;;;;;5013315;28;20050;-62
2023/06/07 03:04:00;;;;;;;8.73;7.40;;;;;;;;;;5029967;28;20053;-58
2023/06/07 03:06:29;;;;;;;8.90;6.95;;;;;;;;;;5035277;28;20050;-61
2023/06/07 03:08:56;;;;;;;8.68;7.78;;;;;;;;;;5035094;28;20049;-61
2023/06/07 03:11:23;;;;;;;8.07;6.95;;;;;;;;;;5035173;28;20045;-59
2023/06/07 03:13:50;;;;;;;7.95;7.15;;;;;;;;;;5034994;28;20049;-60
2023/06/07 03:16:17;;;;;;;8.05;7.18;;;;;;;;;;5035101;28;20584;-61
2023/06/07 03:18:44;;;;;;;9.82;7.75;;;;;;;;;;5034758;28;20053;-61
2023/06/07 03:21:11;;;;;;;8.48;7.53;;;;;;;;;;5034908;28;20053;-61
2023/06/07 03:23:39;;;;;;;7.88;7.07;;;;;;;;;;5034859;28;20242;-61
2023/06/07 03:26:07;;;;;;;7.18;6.47;;;;;;;;;;5034938;28;20042;-60
2023/06/07 03:28:34;;;;;;;8.35;7.28;;;;;;;;;;5034574;28;20060;-61
2023/06/07 03:31:01;;;;;;;9.70;8.13;;;;;;;;;;5034896;28;20088;-61
2023/06/07 03:33:28;;;;;;;8.95;7.47;;;;;;;;;;5034695;28;20455;-61
2023/06/07 03:35:56;;;;;;;8.48;7.57;;;;;;;;;;5034641;28;20049;-60
2023/06/07 03:38:23;;;;;;;9.05;7.45;;;;;;;;;;5034689;28;20057;-59
2023/06/07 03:40:51;;;;;;;8.63;7.40;;;;;;;;;;5034673;28;20391;-61
2023/06/07 03:43:18;;;;;;;8.93;7.38;;;;;;;;;;5034565;28;20200;-61
2023/06/07 03:45:45;;;;;;;8.23;7.43;;;;;;;;;;5034376;28;20056;-62
2023/06/07 03:48:11;;;;;;;8.20;7.00;;;;;;;;;;5034389;28;20563;-59
2023/06/07 03:50:38;;;;;;;8.95;7.95;;;;;;;;;;5034273;28;20061;-60
2023/06/07 03:53:05;;;;;;;13.02;10.65;;;;;;;;;;5034323;28;20053;-61
2023/06/07 03:55:33;;;;;;;13.50;12.10;;;;;;;;;;5034683;28;20076;-62
2023/06/07 03:58:01;;;;;;;14.23;12.10;;;;;;;;;;5034304;28;20431;-61
2023/06/07 04:00:28;;;;;;;17.15;14.13;;;;;;;;;;5034039;28;20049;-61
2023/06/07 04:02:55;;;;;;;15.88;13.63;;;;;;;;;;5028404;28;20046;-61
2023/06/07 04:05:24;;;;;;;15.98;13.70;;;;;;;;;;5014408;28;20144;-60
2023/06/07 04:07:53;;;;;;;15.63;13.65;;;;;;;;;;5014417;28;20470;-61
2023/06/07 04:10:20;;;;;;;14.73;12.77;;;;;;;;;;5014529;28;20131;-61
2023/06/07 04:12:46;;;;;;;16.70;14.30;;;;;;;;;;5013570;28;20057;-61
2023/06/07 04:15:15;;;;;;;14.50;12.60;;;;;;;;;;5014443;28;20050;-61
2023/06/07 04:17:41;;;;;;;11.57;10.02;;;;;;;;;;5014086;28;20081;-61
2023/06/07 04:20:09;;;;;;;11.65;10.45;;;;;;;;;;5013954;28;20049;-62
2023/06/07 04:22:36;;;;;;;12.35;9.57;;;;;;;;;;5014024;28;20156;-61
2023/06/07 04:25:03;;;;;;;11.15;9.40;;;;;;;;;;5014232;28;20619;-60
2023/06/07 04:27:30;;;;;;;10.90;8.98;;;;;;;;;;5013890;28;20148;-62
2023/06/07 04:29:59;;;;;;;11.73;9.43;;;;;;;;;;5014193;28;20590;-61
2023/06/07 04:32:27;;;;;;;10.63;9.52;;;;;;;;;;5014026;28;20049;-60
2023/06/07 04:34:55;;;;;;;11.38;9.40;;;;;;;;;;5014042;28;20049;-61
2023/06/07 04:37:24;;;;;;;10.55;8.65;;;;;;;;;;5013923;28;20046;-62
2023/06/07 04:39:51;;;;;;;12.45;9.85;;;;;;;;;;5014102;28;20062;-64
2023/06/07 04:42:18;;;;;;;11.38;9.05;;;;;;;;;;5014331;28;20109;-61
2023/06/07 04:44:45;;;;;;;11.55;9.52;;;;;;;;;;5013813;28;20559;-59
2023/06/07 04:47:12;;;;;;;11.52;9.18;;;;;;;;;;5013752;28;20046;-61
2023/06/07 04:49:41;;;;;;;11.38;9.65;;;;;;;;;;5013667;28;20478;-61
2023/06/07 04:52:08;;;;;;;12.63;10.93;;;;;;;;;;5013614;28;20061;-62
2023/06/07 04:54:36;;;;;;;11.65;10.45;;;;;;;;;;5013430;28;20407;-62
2023/06/07 04:57:03;;;;;;;11.43;9.50;;;;;;;;;;5013754;28;20561;-61
2023/06/07 04:59:34;;;;;;;12.73;10.45;;;;;;;;;;5013007;28;20064;-60
2023/06/07 05:02:01;;;;;;;10.35;9.20;;;;;;;;;;5013615;28;20045;-61
2023/06/07 05:04:30;;;;;;;12.55;10.00;;;;;;;;;;5031539;28;20220;-62
2023/06/07 05:06:58;;;;;;;12.30;11.00;;;;;;;;;;5033306;28;20054;-60
2023/06/07 05:09:25;;;;;;;10.57;9.45;;;;;;;;;;5032593;28;20418;-62
2023/06/07 05:11:52;;;;;;;12.23;10.93;;;;;;;;;;5032921;28;20418;-61
2023/06/07 05:14:19;;;;;;;12.75;11.30;;;;;;;;;;5032990;28;20049;-62
2023/06/07 05:16:45;;;;;;;11.57;10.07;;;;;;;;;;5032830;28;20049;-60
2023/06/07 05:19:13;;;;;;;12.43;11.00;;;;;;;;;;5032533;28;20061;-61
2023/06/07 05:21:40;;;;;;;12.18;10.85;;;;;;;;;;5032922;28;20076;-62
2023/06/07 05:24:08;;;;;;;13.15;10.52;;;;;;;;;;5032010;28;20041;-61
2023/06/07 05:26:35;;;;;;;12.38;11.05;;;;;;;;;;5032532;28;20045;-60
2023/06/07 05:29:02;;;;;;;14.27;10.65;;;;;;;;;;5032614;28;20068;-60
2023/06/07 05:31:30;;;;;;;12.18;10.27;;;;;;;;;;5032493;28;20052;-61
2023/06/07 05:33:57;;;;;;;11.65;10.45;;;;;;;;;;5032619;28;20049;-60
2023/06/07 05:36:24;;;;;;;13.77;11.02;;;;;;;;;;5032640;28;20100;-61
2023/06/07 05:38:50;;;;;;;11.38;10.10;;;;;;;;;;5032376;28;20127;-61
2023/06/07 05:41:19;;;;;;;12.88;10.90;;;;;;;;;;5032458;28;20057;-62
2023/06/07 05:43:46;;;;;;;11.70;9.90;;;;;;;;;;5032373;28;20046;-61
2023/06/07 05:46:13;;;;;;;13.50;10.30;;;;;;;;;;5032472;28;20045;-61
2023/06/07 05:48:39;;;;;;;12.85;10.77;;;;;;;;;;5032044;28;20053;-61
2023/06/07 05:51:07;;;;;;;12.75;11.15;;;;;;;;;;5032491;28;20050;-60
2023/06/07 05:53:34;;;;;;;12.90;11.35;;;;;;;;;;5032036;28;20136;-61
2023/06/07 05:56:00;;;;;;;11.52;10.32;;;;;;;;;;5032303;28;20052;-61
2023/06/07 05:58:30;;;;;;;15.50;10.93;;;;;;;;;;5032033;28;20056;-62
2023/06/07 06:00:58;;;;;;;12.73;10.38;;;;;;;;;;5032216;28;20049;-61
2023/06/07 06:03:25;;;;;;;11.43;9.88;;;;;;;;;;5022385;28;20499;-61
2023/06/07 06:05:52;;;;;;;13.88;10.88;;;;;;;;;;5012299;28;20054;-61
2023/06/07 06:08:19;;;;;;;12.40;10.00;;;;;;;;;;5012193;28;20042;-61
2023/06/07 06:10:46;;;;;;;12.07;9.77;;;;;;;;;;5011943;28;20053;-62
2023/06/07 06:13:12;;;;;;;12.95;10.52;;;;;;;;;;5012534;28;20052;-60
2023/06/07 06:15:40;;;;;;;11.40;10.20;;;;;;;;;;5012152;28;20050;-62
2023/06/07 06:18:07;;;;;;;13.23;11.18;;;;;;;;;;5012164;28;20477;-61
2023/06/07 06:20:36;;;;;;;12.15;10.93;;;;;;;;;;5011980;28;20506;-61
2023/06/07 06:23:04;;;;;;;15.23;11.10;;;;;;;;;;5012258;28;20042;-61
2023/06/07 06:25:31;;;;;;;12.55;9.57;;;;;;;;;;5011977;28;20092;-60
2023/06/07 06:27:58;;;;;;;13.20;10.45;;;;;;;;;;5011904;28;20052;-60
2023/06/07 06:30:27;;;;;;;11.55;10.35;;;;;;;;;;5011681;28;20042;-61
2023/06/07 06:32:55;;;;;;;11.13;10.00;;;;;;;;;;5012238;28;20076;-62
2023/06/07 06:35:22;;;;;;;10.68;9.23;;;;;;;;;;5011974;28;20053;-61
2023/06/07 06:37:49;;;;;;;12.27;10.50;;;;;;;;;;5011998;28;20054;-61
2023/06/07 06:40:16;;;;;;;10.27;9.25;;;;;;;;;;5011856;28;20439;-61
2023/06/07 06:42:43;;;;;;;10.25;9.18;;;;;;;;;;5012091;28;20058;-61
2023/06/07 06:45:10;;;;;;;11.07;9.00;;;;;;;;;;5012362;28;20065;-63
2023/06/07 06:47:41;;;;;;;10.43;9.35;;;;;;;;;;5012198;28;20046;-61
2023/06/07 06:50:10;;;;;;;9.98;8.60;;;;;;;;;;5011825;28;20049;-61
2023/06/07 06:52:37;;;;;;;13.68;10.88;;;;;;;;;;5011682;28;20079;-61
2023/06/07 06:55:04;;;;;;;11.18;9.93;;;;;;;;;;5011481;28;20076;-60
2023/06/07 06:57:31;;;;;;;10.60;9.23;;;;;;;;;;5011796;28;20518;-62
2023/06/07 06:59:59;;;;;;;10.88;9.77;;;;;;;;;;5011907;28;20046;-59
2023/06/07 07:02:25;;;;;;;11.13;9.73;;;;;;;;;;5013442;28;20573;-61
2023/06/07 07:04:52;;;;;;;10.13;8.95;;;;;;;;;;5031372;28;20387;-61
2023/06/07 07:07:21;;;;;;;11.27;9.30;;;;;;;;;;5031096;28;20053;-62
2023/06/07 07:09:49;;;;;;;10.60;8.32;;;;;;;;;;5030961;28;20050;-61
2023/06/07 07:12:16;;;;;;;11.93;9.40;;;;;;;;;;5031266;28;20046;-61
2023/06/07 07:14:43;;;;;;;12.55;9.48;;;;;;;;;;5031294;28;20057;-61
2023/06/07 07:17:09;;;;;;;11.27;9.93;;;;;;;;;;5031418;28;20049;-62
2023/06/07 07:19:36;;;;;;;9.77;8.40;;;;;;;;;;5031243;28;20673;-61
2023/06/07 07:22:03;;;;;;;10.45;8.93;;;;;;;;;;5031576;28;20495;-61
2023/06/07 07:24:31;;;;;;;10.63;9.20;;;;;;;;;;5031470;28;20050;-63
2023/06/07 07:26:58;;;;;;;10.32;8.00;;;;;;;;;;5031454;28;20455;-63
2023/06/07 07:29:25;;;;;;;10.75;9.63;;;;;;;;;;5031111;28;20045;-65
2023/06/07 07:31:53;;;;;;;10.52;8.48;;;;;;;;;;5031599;28;20053;-65
2023/06/07 07:34:20;;;;;;;10.20;7.82;;;;;;;;;;5031232;28;20045;-65
2023/06/07 07:36:47;;;;;;;10.00;8.30;;;;;;;;;;5031217;28;20049;-65
2023/06/07 07:39:16;;;;;;;10.43;8.65;;;;;;;;;;5030864;28;20124;-64
2023/06/07 07:41:45;;;;;;;9.98;8.45;;;;;;;;;;5031127;28;20490;-64
2023/06/07 07:44:12;;;;;;;11.15;9.02;;;;;;;;;;5031094;28;20108;-65
2023/06/07 07:46:39;;;;;;;9.77;8.77;;;;;;;;;;5031173;28;20053;-65
2023/06/07 07:49:06;;;;;;;9.70;8.68;;;;;;;;;;5033270;28;20469;-64
2023/06/07 07:51:33;;;;;;;10.07;7.75;;;;;;;;;;5034737;28;20052;-64
2023/06/07 07:54:00;;;;;;;9.32;8.32;;;;;;;;;;5034663;28;20048;-64
2023/06/07 07:56:27;;;;;;;10.50;8.57;;;;;;;;;;5034512;28;20056;-64
2023/06/07 07:58:55;;;;;;;9.93;8.40;;;;;;;;;;5034125;28;20136;-64
2023/06/07 08:01:22;;;;;;;10.27;8.68;;;;;;;;;;5034672;28;20056;-65
2023/06/07 08:03:49;;;;;;;9.93;8.90;;;;;;;;;;5021132;28;20120;-65
2023/06/07 08:06:16;;;;;;;9.02;8.02;;;;;;;;;;5014509;28;20115;-65
2023/06/07 08:08:43;;;;;;;9.00;7.97;;;;;;;;;;5014039;28;20482;-64
2023/06/07 08:11:09;;;;;;;8.32;7.32;;;;;;;;;;5014627;28;20431;-65
2023/06/07 08:13:36;;;;;;;9.20;7.78;;;;;;;;;;5014507;28;20455;-64
2023/06/07 08:16:05;;;;;;;9.40;7.57;;;;;;;;;;5014384;28;20116;-65
2023/06/07 08:18:32;;;;;;;8.82;7.75;;;;;;;;;;5014207;28;20061;-65
2023/06/07 08:20:58;;;;;;;10.38;8.45;;;;;;;;;;5014348;28;20149;-64
2023/06/07 08:23:25;;;;;;;9.20;7.53;;;;;;;;;;5014190;28;20100;-65
2023/06/07 08:25:53;;;;;;;9.30;7.93;;;;;;;;;;5014538;28;20394;-64
2023/06/07 08:28:20;;;;;;;8.32;7.43;;;;;;;;;;5014258;28;20056;-65
2023/06/07 08:30:47;;;;;;;10.25;8.07;;;;;;;;;;5013955;28;20058;-65
2023/06/07 08:33:15;;;;;;;11.82;8.73;;;;;;;;;;5013388;28;20843;-65
2023/06/07 08:35:42;;;;;;;12.13;8.93;;;;;;;;;;5014015;28;20058;-65
2023/06/07 08:38:09;;;;;;;9.50;7.93;;;;;;;;;;5013924;28;20057;-66
2023/06/07 08:40:36;;;;;;;9.40;8.07;;;;;;;;;;5013595;28;20056;-62
2023/06/07 08:43:03;;;;;;;9.73;8.30;;;;;;;;;;5014039;28;20140;-62
2023/06/07 08:45:30;;;;;;;9.32;7.88;;;;;;;;;;5014056;28;20082;-63
2023/06/07 08:48:01;;;;;;;7.93;7.13;;;;;;;;;;5014255;28;20487;-64
2023/06/07 08:50:29;;;;;;;8.48;7.45;;;;;;;;;;5013759;28;20504;-64
2023/06/07 08:53:00;;;;;;;8.70;7.28;;;;;;;;;;5014169;28;20388;-64
2023/06/07 08:55:27;;;;;;;10.43;7.97;;;;;;;;;;5013606;28;20057;-64
2023/06/07 08:57:55;;;;;;;8.23;6.93;;;;;;;;;;5013678;28;20487;-62
2023/06/07 09:00:23;;;;;;;8.23;7.25;;;;;;;;;;5013458;28;20313;-62
2023/06/07 09:02:52;;;;;;;9.25;7.22;;;;;;;;;;5018289;28;20060;-62
2023/06/07 09:05:19;;;;;;;8.35;7.28;;;;;;;;;;5033127;28;20053;-64
2023/06/07 09:07:47;;;;;;;7.60;6.40;;;;;;;;;;5032952;28;20053;-61
2023/06/07 09:10:17;;;;;;;6.82;5.60;;;;;;;;;;5032962;28;20127;-63
2023/06/07 09:12:45;;;;;;;7.00;5.53;;;;;;;;;;5033312;28;20568;-63
2023/06/07 09:15:16;;;;;;;7.50;6.13;;;;;;;;;;5033467;28;20439;-63
2023/06/07 09:18:02;;;;;;;8.32;6.95;;;;;;;;;;5032997;28;20055;-64
2023/06/07 09:20:31;;;;;;;7.53;6.30;;;;;;;;;;5033085;28;20129;-63
2023/06/07 09:23:04;;;;;;;8.02;6.78;;;;;;;;;;5033061;28;20049;-64
2023/06/07 09:25:31;;;;;;;7.88;6.93;;;;;;;;;;5033061;28;20132;-63
2023/06/07 09:27:58;;;;;;;8.77;6.25;;;;;;;;;;5033165;28;20049;-64
2023/06/07 09:30:26;;;;;;;7.47;6.65;;;;;;;;;;5032832;28;20132;-63
2023/06/07 09:32:53;;;;;;;8.38;6.75;;;;;;;;;;5033089;28;20141;-63
2023/06/07 09:35:21;;;;;;;7.80;6.60;;;;;;;;;;5032948;28;20096;-64
2023/06/07 09:37:50;;;;;;;7.97;5.90;;;;;;;;;;5033209;28;20058;-64
2023/06/07 09:40:19;;;;;;;6.90;6.07;;;;;;;;;;5032613;28;20514;-63
2023/06/07 09:42:57;;;;;;;7.97;7.18;;;;;;;;;;5032789;28;20144;-64
2023/06/07 09:45:24;;;;;;;8.13;6.95;;;;;;;;;;5032556;28;20045;-62
2023/06/07 09:48:02;;;;;;;10.38;6.45;;;;;;;;;;5032364;28;20046;-62
2023/06/07 09:50:29;;;;;;;8.27;6.25;;;;;;;;;;5032385;28;20461;-65
2023/06/07 09:52:56;;;;;;;7.57;6.50;;;;;;;;;;5032456;28;20050;-61
2023/06/07 09:55:29;;;;;;;8.23;6.60;;;;;;;;;;5032419;28;20057;-62
2023/06/07 09:57:57;;;;;;;7.60;6.80;;;;;;;;;;5032465;28;20445;-60
2023/06/07 10:00:26;;;;;;;8.30;6.68;;;;;;;;;;5031972;28;20064;-62
2023/06/07 10:02:53;;;;;;;8.45;6.75;;;;;;;;;;5027103;28;20487;-61
2023/06/07 10:05:21;;;;;;;7.63;6.82;;;;;;;;;;5012705;28;20446;-62
2023/06/07 10:07:57;;;;;;;8.05;6.72;;;;;;;;;;5013041;28;20145;-62
2023/06/07 10:10:26;;;;;;;8.57;7.00;;;;;;;;;;5011140;28;20092;-61
2023/06/07 10:12:55;;;;;;;7.07;6.32;;;;;;;;;;5012876;28;20096;-60
2023/06/07 10:15:24;;;;;;;9.00;7.50;;;;;;;;;;5012484;28;20062;-62
2023/06/07 10:17:55;;;;;;;7.53;6.53;;;;;;;;;;5012197;28;20132;-62
2023/06/07 10:20:25;;;;;;;8.93;6.47;;;;;;;;;;5011949;28;20050;-62
2023/06/07 10:22:57;;;;;;;8.35;6.63;;;;;;;;;;5012202;28;20146;-62
2023/06/07 10:25:28;;;;;;;8.27;6.15;;;;;;;;;;5012437;28;20136;-65
2023/06/07 10:28:09;;;;;;;9.27;6.55;;;;;;;;;;5012107;28;20499;-62
2023/06/07 10:30:40;;;;;;;8.88;6.25;;;;;;;;;;5011929;28;20466;-61
2023/06/07 10:33:08;;;;;;;7.72;5.95;;;;;;;;;;5012300;28;20454;-62
2023/06/07 10:35:35;;;;;;;6.68;5.97;;;;;;;;;;5012157;28;20149;-61
2023/06/07 10:38:02;;;;;;;6.72;5.65;;;;;;;;;;5011781;28;20050;-61
2023/06/07 10:40:31;;;;;;;6.78;5.63;;;;;;;;;;5011984;28;20057;-62
2023/06/07 10:43:00;;;;;;;8.77;6.22;;;;;;;;;;5012026;28;20054;-62
2023/06/07 10:45:26;;;;;;;7.50;5.85;;;;;;;;;;5012080;28;20108;-60
2023/06/07 10:47:53;;;;;;;7.10;5.88;;;;;;;;;;5011769;28;20053;-62
2023/06/07 10:50:47;;;;;;;6.90;6.10;;;;;;;;;;5011632;28;20073;-61
2023/06/07 10:53:14;;;;;;;6.70;6.00;;;;;;;;;;5004354;28;20149;-61
2023/06/07 10:55:41;;;;;;;6.80;6.10;;;;;;;;;;5011907;28;20530;-62
2023/06/07 10:58:27;;;;;;;6.85;6.15;;;;;;;;;;5011878;28;20147;-64
2023/06/07 11:00:56;;;;;;;7.63;5.25;;;;;;;;;;5011816;28;20046;-62
2023/06/07 11:03:41;;;;;;;7.15;5.25;;;;;;;;;;5021170;28;20050;-61
2023/06/07 11:06:09;;;;;;;7.07;6.03;;;;;;;;;;5031596;28;20049;-62
2023/06/07 11:08:37;;;;;;;7.03;5.13;;;;;;;;;;5031019;28;20095;-62
2023/06/07 11:11:26;;;;;;;7.07;6.20;;;;;;;;;;5031507;28;20057;-62
2023/06/07 11:14:13;;;;;;;6.20;5.45;;;;;;;;;;5031288;28;20056;-61
2023/06/07 11:16:40;;;;;;;6.10;5.50;;;;;;;;;;5031552;28;20129;-63
2023/06/07 11:19:13;;;;;;;7.22;5.75;;;;;;;;;;5031026;28;20050;-60
2023/06/07 11:22:04;;;;;;;5.70;5.07;;;;;;;;;;5031674;28;20088;-63
2023/06/07 11:24:31;;;;;;;6.70;5.63;;;;;;;;;;5034742;28;20050;-63
2023/06/07 11:26:58;;;;;;;6.60;5.50;;;;;;;;;;5035324;28;20115;-62
2023/06/07 11:29:28;;;;;;;6.32;5.60;;;;;;;;;;5023715;28;20084;-62
2023/06/07 11:31:59;;;;;;;7.65;6.07;;;;;;;;;;5015341;28;20049;-61
2023/06/07 11:34:27;;;;;;;6.47;5.15;;;;;;;;;;5015112;28;20050;-61
2023/06/07 11:37:08;;;;;;;6.95;5.88;;;;;;;;;;5015353;28;20057;-61
2023/06/07 11:39:35;;;;;;;5.75;5.15;;;;;;;;;;5015101;28;20530;-61
2023/06/07 11:42:02;;;;;;;7.38;5.47;;;;;;;;;;5014974;28;20054;-62
2023/06/07 11:44:30;;;;;;;6.07;4.95;;;;;;;;;;5014922;28;20057;-62
2023/06/07 11:46:59;;;;;;;6.53;5.55;;;;;;;;;;5015094;28;20736;-62
2023/06/07 11:49:28;;;;;;;6.95;5.75;;;;;;;;;;5014830;28;20050;-61
2023/06/07 11:51:58;;;;;;;8.07;5.68;;;;;;;;;;5014842;28;20108;-62
2023/06/07 11:54:25;;;;;;;;;;;;;;;;;;5015496;28;20058;-62
2023/06/07 11:56:53;;;;;;;7.20;5.70;;;;;;;;;;5014909;28;19965;-61
2023/06/07 11:59:22;;;;;;;10.23;7.32;;;;;;;;;;5014764;28;20537;-62
2023/06/07 12:01:54;;;;;;;7.63;6.45;;;;;;;;;;5014681;28;20137;-62
2023/06/07 12:04:22;;;;;;;7.15;5.32;;;;;;;;;;5031909;28;20053;-62
2023/06/07 12:06:49;;;;;;;5.55;4.95;;;;;;;;;;5034424;28;20081;-61
2023/06/07 12:09:18;;;;;;;6.63;5.22;;;;;;;;;;5033971;28;20055;-63
2023/06/07 12:11:46;;;;;;;7.20;4.80;;;;;;;;;;5034358;28;20060;-62
2023/06/07 12:14:28;;;;;;;7.35;5.30;;;;;;;;;;5034186;28;20056;-61
2023/06/07 12:16:58;;;;;;;8.25;5.05;;;;;;;;;;5034455;28;20451;-62
2023/06/07 12:19:25;;;;;;;6.68;5.00;;;;;;;;;;5034044;28;20060;-61
2023/06/07 12:21:52;;;;;;;6.57;5.28;;;;;;;;;;5034302;28;20085;-62
2023/06/07 12:24:19;;;;;;;6.85;4.60;;;;;;;;;;5034478;28;20414;-61
2023/06/07 12:26:46;;;;;;;6.65;4.90;;;;;;;;;;5034364;28;20053;-62
2023/06/07 12:29:13;;;;;;;7.03;5.18;;;;;;;;;;5033683;28;20522;-62
2023/06/07 12:31:41;;;;;;;5.95;5.00;;;;;;;;;;5034113;28;20105;-61
2023/06/07 12:34:10;;;;;;;7.97;5.43;;;;;;;;;;5033437;28;20084;-61
2023/06/07 12:36:39;;;;;;;6.57;5.20;;;;;;;;;;5034026;28;20107;-64
2023/06/07 12:39:08;;;;;;;7.23;5.40;;;;;;;;;;5033435;28;20136;-62
2023/06/07 12:41:35;;;;;;;6.18;5.13;;;;;;;;;;5033959;28;20156;-63
2023/06/07 12:44:03;;;;;;;6.65;5.55;;;;;;;;;;5033726;28;20057;-63
2023/06/07 12:46:30;;;;;;;6.20;5.20;;;;;;;;;;5033438;28;20049;-61
2023/06/07 12:48:57;;;;;;;6.00;5.00;;;;;;;;;;5033258;28;20057;-63
2023/06/07 12:51:26;;;;;;;7.45;6.10;;;;;;;;;;5033286;28;20255;-62
2023/06/07 12:53:53;;;;;;;6.78;5.68;;;;;;;;;;5033685;28;20136;-61
2023/06/07 12:56:22;;;;;;;7.10;5.60;;;;;;;;;;5033510;28;20411;-62
2023/06/07 12:58:48;;;;;;;8.80;7.03;;;;;;;;;;5033145;28;20100;-62
2023/06/07 13:01:16;;;;;;;7.10;5.20;;;;;;;;;;5033308;28;20049;-61
2023/06/07 13:03:43;;;;;;;7.43;5.80;;;;;;;;;;5021244;28;20042;-64
2023/06/07 13:06:10;;;;;;;6.85;5.43;;;;;;;;;;5013349;28;20045;-62
2023/06/07 13:08:39;;;;;;;6.30;5.10;;;;;;;;;;5013309;28;20144;-62
2023/06/07 13:11:06;;;;;;;6.00;5.40;;;;;;;;;;5013580;28;20499;-62
2023/06/07 13:13:33;;;;;;;7.00;5.15;;;;;;;;;;5013428;28;20426;-62
2023/06/07 13:16:00;;;;;;;6.40;4.63;;;;;;;;;;5013599;28;20061;-63
2023/06/07 13:18:28;;;;;;;6.93;5.07;;;;;;;;;;5013205;28;20046;-62
2023/06/07 13:20:56;;;;;;;5.80;4.15;;;;;;;;;;5013694;28;20570;-62
2023/06/07 13:23:23;;;;;;;5.95;4.70;;;;;;;;;;5013506;28;20053;-62
2023/06/07 13:25:51;;;;;;;6.97;5.00;;;;;;;;;;5013545;28;20104;-63
2023/06/07 13:28:18;;;;;;;9.32;5.30;;;;;;;;;;5013199;28;20050;-61
2023/06/07 13:30:45;;;;;;;6.40;4.82;;;;;;;;;;5013008;28;20111;-60
2023/06/07 13:33:18;;;;;;;7.97;4.68;;;;;;;;;;5013506;28;20570;-60
2023/06/07 13:35:45;;;;;;;7.13;4.78;;;;;;;;;;5013023;28;20049;-63
2023/06/07 13:38:11;;;;;;;5.82;4.72;;;;;;;;;;5013102;28;20446;-62
2023/06/07 13:40:38;;;;;;;6.45;4.93;;;;;;;;;;5012901;28;20630;-61
2023/06/07 13:43:06;;;;;;;7.75;5.40;;;;;;;;;;5013062;28;20116;-61
2023/06/07 13:45:35;;;;;;;6.28;4.50;;;;;;;;;;5010796;28;20400;-62
2023/06/07 13:48:02;;;;;;;6.05;4.82;;;;;;;;;;5012872;28;20053;-63
2023/06/07 13:50:30;;;;;;;7.38;4.60;;;;;;;;;;5012567;28;20096;-64
2023/06/07 13:52:57;;;;;;;7.03;5.13;;;;;;;;;;5013089;28;20053;-60
2023/06/07 13:55:24;;;;;;;5.70;4.30;;;;;;;;;;5012947;28;20054;-62
2023/06/07 13:57:51;;;;;;;7.28;4.85;;;;;;;;;;5013324;28;20100;-61
2023/06/07 14:00:21;;;;;;;5.70;4.72;;;;;;;;;;5012522;28;20503;-62
2023/06/07 14:02:48;;;;;;;7.68;4.80;;;;;;;;;;5017133;28;20091;-62
2023/06/07 14:05:15;;;;;;;5.80;4.43;;;;;;;;;;5032129;28;20046;-61
2023/06/07 14:07:41;;;;;;;6.20;4.65;;;;;;;;;;5032333;28;20546;-63
2023/06/07 14:10:09;;;;;;;5.75;4.63;;;;;;;;;;5031950;28;20049;-63
2023/06/07 14:12:36;;;;;;;7.18;4.85;;;;;;;;;;5032191;28;20041;-61
2023/06/07 14:15:05;;;;;;;6.50;5.25;;;;;;;;;;5032115;28;20050;-65
2023/06/07 14:17:33;;;;;;;5.13;4.20;;;;;;;;;;5032308;28;20091;-65
2023/06/07 14:20:00;;;;;;;5.63;4.45;;;;;;;;;;5031868;28;20095;-65
2023/06/07 14:22:27;;;;;;;6.68;5.25;;;;;;;;;;5039364;28;20064;-62
2023/06/07 14:24:54;;;;;;;5.90;4.90;;;;;;;;;;5032128;28;20045;-64
2023/06/07 14:27:20;;;;;;;6.80;5.03;;;;;;;;;;5031687;28;20107;-61
2023/06/07 14:29:47;;;;;;;6.43;5.45;;;;;;;;;;5031609;28;20096;-63
2023/06/07 14:32:15;;;;;;;7.32;4.60;;;;;;;;;;5031854;28;20046;-61
2023/06/07 14:34:43;;;;;;;6.05;4.50;;;;;;;;;;5031710;28;20108;-62
2023/06/07 14:37:10;;;;;;;6.05;4.78;;;;;;;;;;5031903;28;20123;-62
2023/06/07 14:39:36;;;;;;;6.70;5.35;;;;;;;;;;5031339;28;20430;-62
2023/06/07 14:42:04;;;;;;;6.10;5.07;;;;;;;;;;5031680;28;20099;-62
2023/06/07 14:44:31;;;;;;;6.13;4.53;;;;;;;;;;5031726;28;20060;-62